Time;durP1;ratioP1;P1;durP2;ratioP2;P2;SDS_P1;SDS_P2;PMS_P1;PMS_P2;Temp;Humidity;BMP_temperature;BMP_pressure;BME280_temperature;BME280_humidity;BME280_pressure;Samples;Min_cycle;Max_cycle;Signal;HPM_P1;HPM_P2
2021/01/27 00:00:47;;;;;;;0.20;0.10;;;;;;;1.86;100.00;100560.00;5044653;28;20833;-50
2021/01/27 00:03:14;;;;;;;0.20;0.10;;;;;;;1.84;100.00;100554.75;5033665;28;20503;-50
2021/01/27 00:05:45;;;;;;;0.20;0.10;;;;;;;1.91;100.00;100559.19;5044687;28;20485;-50
2021/01/27 00:08:11;;;;;;;0.20;0.10;;;;;;;1.92;100.00;100550.47;5033577;28;20443;-50
2021/01/27 00:10:38;;;;;;;0.20;0.10;;;;;;;1.96;100.00;100551.38;5045008;28;20943;-50
2021/01/27 00:13:11;;;;;;;0.20;0.10;;;;;;;1.96;100.00;100559.25;5033353;28;20477;-51
2021/01/27 00:15:40;;;;;;;0.20;0.20;;;;;;;1.90;100.00;100559.16;5046088;28;20443;-51
2021/01/27 00:18:09;;;;;;;0.20;0.10;;;;;;;1.86;100.00;100565.25;5045415;28;20451;-51
2021/01/27 00:20:35;;;;;;;0.20;0.10;;;;;;;1.73;100.00;100556.38;5033352;28;20483;-50
2021/01/27 00:23:02;;;;;;;0.20;0.10;;;;;;;1.84;100.00;100559.09;5044806;28;20501;-51
2021/01/27 00:25:31;;;;;;;0.20;0.10;;;;;;;1.79;100.00;100553.81;5049174;28;20454;-50
2021/01/27 00:27:58;;;;;;;0.30;0.20;;;;;;;1.72;100.00;100541.50;5032308;28;20933;-50
2021/01/27 00:30:31;;;;;;;0.20;0.10;;;;;;;1.75;100.00;100541.53;5045813;28;20439;-50
2021/01/27 00:32:57;;;;;;;0.20;0.10;;;;;;;1.69;100.00;100542.34;5036339;28;20451;-50
2021/01/27 00:35:28;;;;;;;0.20;0.10;;;;;;;1.78;100.00;100537.22;5049672;28;20460;-50
2021/01/27 00:37:55;;;;;;;0.20;0.10;;;;;;;1.76;100.00;100536.31;5036377;28;20812;-51
2021/01/27 00:40:22;;;;;;;0.20;0.13;;;;;;;1.62;100.00;100521.28;5039914;28;20486;-50
2021/01/27 00:42:49;;;;;;;0.20;0.10;;;;;;;1.48;100.00;100511.53;5043792;28;20454;-50
2021/01/27 00:45:16;;;;;;;0.40;0.40;;;;;;;1.44;100.00;100503.63;5039561;28;20458;-50
2021/01/27 00:47:42;;;;;;;0.20;0.10;;;;;;;1.66;100.00;100507.41;5044341;28;20447;-50
2021/01/27 00:50:09;;;;;;;0.20;0.10;;;;;;;1.55;100.00;100515.13;5040357;28;20450;-50
2021/01/27 00:52:35;;;;;;;0.20;0.10;;;;;;;1.62;100.00;100503.84;5044008;28;20513;-50
2021/01/27 00:55:17;;;;;;;0.20;0.10;;;;;;;1.57;100.00;100491.56;5050256;28;21049;-50
2021/01/27 00:57:43;;;;;;;0.20;0.10;;;;;;;1.68;100.00;100503.03;5041873;28;20448;-50
2021/01/27 01:00:19;;;;;;;0.20;0.10;;;;;;;1.75;100.00;100510.09;5042345;28;21237;-50
2021/01/27 01:02:45;;;;;;;2.10;2.00;;;;;;;1.78;100.00;100512.72;5040257;28;20812;-51
2021/01/27 01:05:14;;;;;;;0.20;0.10;;;;;;;1.67;100.00;100517.00;5043936;28;20454;-50
2021/01/27 01:07:47;;;;;;;0.20;0.10;;;;;;;1.59;100.00;100511.66;5050745;28;20448;-50
2021/01/27 01:10:26;;;;;;;0.20;0.10;;;;;;;1.43;100.00;100505.38;5044405;28;20790;-51
2021/01/27 01:12:53;;;;;;;0.20;0.10;;;;;;;1.40;100.00;100504.47;5037433;28;20459;-50
2021/01/27 01:15:22;;;;;;;0.20;0.10;;;;;;;1.47;100.00;100517.63;5046592;28;20876;-50
2021/01/27 01:17:48;;;;;;;0.20;0.10;;;;;;;1.54;100.00;100509.88;5036700;28;20521;-50
2021/01/27 01:20:15;;;;;;;0.20;0.10;;;;;;;1.42;100.00;100514.09;5046519;28;20717;-50
2021/01/27 01:22:50;;;;;;;0.20;0.10;;;;;;;1.36;100.00;100515.75;5036301;28;20458;-50
2021/01/27 01:25:18;;;;;;;0.20;0.10;;;;;;;1.38;100.00;100504.47;5052085;28;20450;-50
2021/01/27 01:27:45;;;;;;;0.20;0.10;;;;;;;1.35;100.00;100499.16;5035092;28;20536;-50
2021/01/27 01:30:28;;;;;;;0.20;0.10;;;;;;;1.28;100.00;100497.34;5047600;28;21086;-51
2021/01/27 01:32:56;;;;;;;0.20;0.10;;;;;;;1.48;100.00;100505.44;5034812;28;20477;-50
2021/01/27 01:35:24;;;;;;;0.20;0.10;;;;;;;1.68;100.00;100516.16;5047592;28;21027;-50
2021/01/27 01:37:50;;;;;;;0.20;0.10;;;;;;;1.66;100.00;100504.78;5034993;28;20452;-50
2021/01/27 01:40:23;;;;;;;0.20;0.10;;;;;;;1.67;100.00;100509.16;5048139;28;20582;-50
2021/01/27 01:45:48;;;;;;;0.20;0.10;;;;;;;1.75;100.00;100486.50;4993253;28;20500;-78
2021/01/27 01:48:14;;;;;;;0.20;0.10;;;;;;;1.63;100.00;100489.00;4996059;28;20469;-79
2021/01/27 01:50:40;;;;;;;0.20;0.20;;;;;;;1.67;100.00;100485.56;4979758;28;20959;-79
2021/01/27 01:53:07;;;;;;;0.20;0.10;;;;;;;1.65;100.00;100475.09;4994315;28;20461;-78
2021/01/27 01:55:33;;;;;;;0.20;0.10;;;;;;;1.53;100.00;100460.97;4987034;28;20444;-78
2021/01/27 01:58:01;;;;;;;0.20;0.10;;;;;;;1.47;100.00;100469.63;4982189;28;20512;-79
2021/01/27 02:00:30;;;;;;;0.20;0.10;;;;;;;1.54;100.00;100474.09;4978427;28;20496;-79
2021/01/27 02:02:56;;;;;;;0.20;0.10;;;;;;;1.42;100.00;100464.34;4980708;28;20469;-79
2021/01/27 02:05:25;;;;;;;0.20;0.10;;;;;;;1.46;100.00;100467.88;4995318;28;20454;-78
2021/01/27 02:07:57;;;;;;;0.20;0.10;;;;;;;1.44;100.00;100459.13;4977723;28;20494;-78
2021/01/27 02:10:24;;;;;;;0.20;0.10;;;;;;;1.38;100.00;100470.41;4994040;28;20453;-79
2021/01/27 02:13:29;;;;;;;0.20;0.10;;;;;;;1.42;100.00;100469.59;4978760;28;20512;-79
2021/01/27 02:16:09;;;;;;;0.20;0.10;;;;;;;1.54;100.00;100467.97;4978181;28;20499;-78
2021/01/27 02:18:53;;;;;;;0.20;0.10;;;;;;;1.59;100.00;100466.25;4982651;28;20529;-79
2021/01/27 02:21:38;;;;;;;0.20;0.10;;;;;;;1.64;100.00;100464.56;4965790;28;20476;-79
2021/01/27 02:24:18;;;;;;;0.20;0.10;;;;;;;1.70;100.00;100455.03;4987250;28;20799;-79
2021/01/27 02:27:12;;;;;;;0.20;0.10;;;;;;;1.72;100.00;100455.91;4982529;28;20454;-79
2021/01/27 02:29:58;;;;;;;0.20;0.10;;;;;;;1.78;100.00;100457.72;4984068;28;20477;-79
2021/01/27 02:32:46;;;;;;;0.20;0.10;;;;;;;1.80;100.00;100463.00;4988378;28;21033;-79
2021/01/27 02:35:19;;;;;;;0.20;0.10;;;;;;;1.83;100.00;100442.94;4989793;28;20484;-78
2021/01/27 02:37:48;;;;;;;0.20;0.10;;;;;;;1.76;100.00;100444.59;4979401;28;20939;-79
2021/01/27 02:40:22;;;;;;;0.20;0.10;;;;;;;1.83;100.00;100453.41;4992930;28;20569;-79
2021/01/27 02:42:59;;;;;;;0.20;0.10;;;;;;;1.75;100.00;100455.94;4977597;28;20445;-79
2021/01/27 02:45:35;;;;;;;0.20;0.10;;;;;;;1.74;100.00;100450.69;4994283;28;20470;-78
2021/01/27 02:48:07;;;;;;;0.40;0.40;;;;;;;1.72;100.00;100452.44;4977263;28;20997;-78
2021/01/27 02:50:40;;;;;;;0.20;0.10;;;;;;;1.64;100.00;100446.22;4993102;28;20442;-78
2021/01/27 02:53:22;;;;;;;0.20;0.20;;;;;;;1.44;100.00;100446.03;4994438;28;20454;-78
2021/01/27 02:55:57;;;;;;;0.20;0.20;;;;;;;1.51;100.00;100449.56;4979390;28;20448;-78
2021/01/27 02:58:47;;;;;;;0.20;0.10;;;;;;;1.41;100.00;100443.38;4977549;28;20465;-78
2021/01/27 03:01:25;;;;;;;0.20;0.20;;;;;;;1.31;100.00;100445.00;4993458;28;20477;-79
2021/01/27 03:04:01;;;;;;;0.20;0.10;;;;;;;1.31;100.00;100447.63;4976995;28;20447;-79
2021/01/27 03:06:28;;;;;;;0.20;0.10;;;;;;;1.32;100.00;100440.66;4988874;28;20516;-78
2021/01/27 03:09:00;;;;;;;0.20;0.10;;;;;;;1.33;100.00;100438.03;4986526;28;20485;-79
2021/01/27 03:11:33;;;;;;;0.20;0.20;;;;;;;1.31;100.00;100452.00;4993992;28;20499;-79
2021/01/27 03:14:00;;;;;;;0.20;0.10;;;;;;;1.27;100.00;100445.84;4994302;28;20464;-78
2021/01/27 03:16:40;;;;;;;0.20;0.10;;;;;;;1.20;100.00;100425.69;4992975;28;20538;-79
2021/01/27 03:19:15;;;;;;;0.20;0.10;;;;;;;1.22;100.00;100423.06;4978352;28;20473;-79
2021/01/27 03:22:05;;;;;;;0.20;0.10;;;;;;;1.17;100.00;100417.81;4977184;28;20858;-78
2021/01/27 03:24:38;;;;;;;0.20;0.10;;;;;;;1.22;100.00;100410.00;4977025;28;20450;-78
2021/01/27 03:27:12;;;;;;;0.20;0.10;;;;;;;1.26;100.00;100410.06;4978954;28;20445;-79
2021/01/27 03:29:57;;;;;;;0.20;0.10;;;;;;;1.25;100.00;100395.22;5011507;28;20469;-79
2021/01/27 03:32:54;;;;;;;0.20;0.10;;;;;;;1.32;100.00;100397.03;4981310;28;20484;-78
2021/01/27 03:35:38;;;;;;;0.20;0.10;;;;;;;1.42;100.00;100382.28;4977422;28;20449;-79
2021/01/27 03:38:14;;;;;;;0.20;0.10;;;;;;;1.41;100.00;100385.78;4977073;28;20512;-78
2021/01/27 03:40:43;;;;;;;0.20;0.10;;;;;;;1.55;100.00;100381.53;4989331;28;20485;-78
2021/01/27 03:43:19;;;;;;;0.20;0.10;;;;;;;1.58;100.00;100378.94;4976529;28;20449;-77
2021/01/27 03:45:54;;;;;;;0.20;0.10;;;;;;;1.68;100.00;100374.69;4978132;28;20466;-79
2021/01/27 03:48:35;;;;;;;0.20;0.10;;;;;;;1.68;100.00;100374.69;4992652;28;20480;-78
2021/01/27 03:51:02;;;;;;;0.30;0.20;;;;;;;1.72;100.00;100379.94;4993906;28;20500;-79
2021/01/27 03:53:30;;;;;;;0.20;0.10;;;;;;;1.71;100.00;100369.44;4976238;28;20449;-78
2021/01/27 03:56:15;;;;;;;0.20;0.10;;;;;;;1.76;100.00;100363.38;4988389;28;20503;-78
2021/01/27 03:58:44;;;;;;;0.20;0.10;;;;;;;1.81;100.00;100376.53;4964662;28;20505;-78
2021/01/27 04:01:10;;;;;;;0.20;0.10;;;;;;;1.81;100.00;100368.66;4977284;28;20489;-78
2021/01/27 04:03:38;;;;;;;0.20;0.10;;;;;;;1.88;100.00;100377.44;4976728;28;20492;-78
2021/01/27 04:06:05;;;;;;;0.20;0.10;;;;;;;1.80;100.00;100366.03;4993401;28;20453;-78
2021/01/27 04:08:32;;;;;;;0.20;0.10;;;;;;;1.78;100.00;100355.53;4997310;28;21013;-78
2021/01/27 04:10:59;;;;;;;3.70;3.50;;;;;;;1.61;100.00;100365.00;4980280;28;20446;-79
2021/01/27 04:13:26;;;;;;;0.20;0.10;;;;;;;1.57;100.00;100360.59;4980658;28;20453;-79
2021/01/27 04:15:52;;;;;;;0.20;0.10;;;;;;;1.39;100.00;100356.97;4979962;28;20446;-79
2021/01/27 04:18:18;;;;;;;0.20;0.10;;;;;;;1.51;100.00;100364.06;4996360;28;20532;-78
2021/01/27 04:20:44;;;;;;;0.20;0.10;;;;;;;1.43;100.00;100358.72;4979874;28;21010;-78
2021/01/27 04:23:11;;;;;;;0.20;0.10;;;;;;;1.47;100.00;100355.25;4979994;28;20513;-78
2021/01/27 04:25:37;;;;;;;0.20;0.10;;;;;;;1.36;100.00;100335.06;4983097;28;20454;-78
2021/01/27 04:28:04;;;;;;;0.20;0.10;;;;;;;1.48;100.00;100343.03;4982258;28;20472;-79
2021/01/27 04:30:32;;;;;;;0.20;0.20;;;;;;;1.69;100.00;100342.38;4992988;28;20450;-78
2021/01/27 04:33:00;;;;;;;0.20;0.10;;;;;;;1.78;100.00;100329.31;4997215;28;20450;-79
2021/01/27 04:35:28;;;;;;;0.20;0.10;;;;;;;1.93;100.00;100339.06;4981210;28;20458;-79
2021/01/27 04:37:54;;;;;;;0.20;0.10;;;;;;;1.81;100.00;100320.63;4983465;28;20478;-79
2021/01/27 04:40:28;;;;;;;1.23;1.23;;;;;;;1.70;100.00;100323.16;4993455;28;20570;-79
2021/01/27 04:42:55;;;;;;;0.50;0.50;;;;;;;1.72;100.00;100310.94;4973181;28;20805;-79
2021/01/27 04:45:22;;;;;;;0.20;0.10;;;;;;;1.64;100.00;100313.50;4980872;28;20465;-79
2021/01/27 04:48:19;;;;;;;0.20;0.20;;;;;;;1.72;100.00;100314.44;4980233;28;20500;-79
2021/01/27 04:50:55;;;;;;;0.20;0.10;;;;;;;1.85;100.00;100312.78;4979998;28;20449;-79
2021/01/27 04:53:36;;;;;;;0.20;0.10;;;;;;;1.83;100.00;100304.03;4996961;28;20857;-79
2021/01/27 04:56:24;;;;;;;0.40;0.40;;;;;;;1.85;100.00;100304.06;4999989;28;20444;-79
2021/01/27 04:59:02;;;;;;;0.20;0.10;;;;;;;1.79;100.00;100286.56;4969945;28;20992;-79
2021/01/27 05:01:43;;;;;;;0.20;0.10;;;;;;;1.86;100.00;100288.34;4979399;28;20477;-79
2021/01/27 05:04:15;;;;;;;0.20;0.10;;;;;;;1.90;100.00;100284.84;4986635;28;20462;-79
2021/01/27 05:06:44;;;;;;;0.20;0.10;;;;;;;1.81;100.00;100266.47;4967250;28;20503;-79
2021/01/27 05:09:29;;;;;;;0.20;0.10;;;;;;;1.90;100.00;100263.91;4979475;28;20466;-79
2021/01/27 05:11:58;;;;;;;0.20;0.10;;;;;;;1.92;100.00;100274.38;4981415;28;20477;-79
2021/01/27 05:14:26;;;;;;;0.20;0.10;;;;;;;1.91;100.00;100263.03;4991292;28;20939;-80
2021/01/27 05:16:52;;;;;;;0.20;0.10;;;;;;;1.90;100.00;100250.78;5003769;28;20445;-79
2021/01/27 05:19:19;;;;;;;0.20;0.10;;;;;;;1.85;100.00;100242.03;4993501;28;20478;-80
2021/01/27 05:21:50;;;;;;;0.20;0.10;;;;;;;1.91;100.00;100239.44;4982110;28;20576;-80
2021/01/27 05:24:17;;;;;;;0.20;0.10;;;;;;;1.93;100.00;100239.47;4984196;28;20441;-79
2021/01/27 05:27:03;;;;;;;0.20;0.10;;;;;;;2.04;100.00;100229.91;4981524;28;20458;-79
2021/01/27 05:29:41;;;;;;;0.20;0.10;;;;;;;2.08;100.00;100226.44;4985338;28;20479;-79
2021/01/27 05:32:16;;;;;;;0.20;0.10;;;;;;;2.19;100.00;100231.72;4992262;28;20441;-79
2021/01/27 05:34:45;;;;;;;0.20;0.10;;;;;;;2.09;100.00;100215.09;4994744;28;20441;-79
2021/01/27 05:37:26;;;;;;;0.20;0.10;;;;;;;2.13;100.00;100232.56;5002842;28;20438;-79
2021/01/27 05:40:14;;;;;;;0.20;0.10;;;;;;;2.27;100.00;100232.63;4996026;28;20474;-80
2021/01/27 05:42:41;;;;;;;0.47;0.47;;;;;;;2.27;100.00;100233.50;4986510;28;20442;-80
2021/01/27 05:45:27;;;;;;;0.20;0.10;;;;;;;2.35;100.00;100244.03;4995713;28;20872;-80
2021/01/27 05:47:55;;;;;;;0.20;0.10;;;;;;;2.28;100.00;100243.13;4987934;28;20593;-80
2021/01/27 05:50:36;;;;;;;0.20;0.10;;;;;;;2.22;100.00;100226.50;5005291;28;20480;-80
2021/01/27 05:53:23;;;;;;;0.20;0.10;;;;;;;2.27;100.00;100224.75;5006926;28;20438;-80
2021/01/27 05:56:09;;;;;;;0.20;0.10;;;;;;;2.20;100.00;100216.00;5015439;28;20445;-80
2021/01/27 05:58:39;;;;;;;0.20;0.10;;;;;;;2.19;100.00;100213.34;4994890;28;20886;-80
2021/01/27 06:01:14;;;;;;;0.20;0.10;;;;;;;2.28;100.00;100211.66;5008341;28;20491;-80
2021/01/27 06:04:11;;;;;;;0.20;0.10;;;;;;;2.20;100.00;100202.91;5001676;28;20469;-80
2021/01/27 06:06:58;;;;;;;0.20;0.10;;;;;;;2.09;100.00;100167.91;4997104;28;20462;-79
2021/01/27 06:09:42;;;;;;;0.20;0.20;;;;;;;2.15;100.00;100191.50;4983940;28;20884;-80
2021/01/27 06:12:20;;;;;;;0.20;0.10;;;;;;;2.21;100.00;100188.03;5001351;28;20516;-80
2021/01/27 06:15:08;;;;;;;0.30;0.10;;;;;;;2.18;100.00;100178.41;4996588;28;20454;-80
2021/01/27 06:17:40;;;;;;;0.20;0.10;;;;;;;2.16;100.00;100181.88;4983331;28;20464;-80
2021/01/27 06:20:21;;;;;;;0.20;0.10;;;;;;;2.12;100.00;100183.63;4986696;28;20546;-80
2021/01/27 06:23:21;;;;;;;0.20;0.10;;;;;;;2.24;100.00;100193.28;4982545;28;20985;-79
2021/01/27 06:26:00;;;;;;;0.20;0.10;;;;;;;2.19;100.00;100187.13;4996403;28;20525;-80
2021/01/27 06:28:50;;;;;;;0.20;0.10;;;;;;;2.18;100.00;100180.13;4987529;28;21042;-80
2021/01/27 06:31:38;;;;;;;0.70;0.70;;;;;;;2.16;100.00;100180.13;4973197;28;20458;-80
2021/01/27 06:34:14;;;;;;;0.20;0.10;;;;;;;2.19;100.00;100168.78;4990080;28;20459;-80
2021/01/27 06:37:03;;;;;;;0.20;0.10;;;;;;;2.10;100.00;100168.78;4990146;28;20465;-80
2021/01/27 06:39:45;;;;;;;0.20;0.10;;;;;;;2.15;100.00;100174.91;4992178;28;20477;-80
2021/01/27 06:42:29;;;;;;;0.20;0.10;;;;;;;2.17;100.00;100179.25;4994354;28;20485;-80
2021/01/27 06:45:01;;;;;;;0.20;0.10;;;;;;;2.18;100.00;100182.75;4993516;28;20518;-79
2021/01/27 06:47:43;;;;;;;0.20;0.10;;;;;;;2.31;100.00;100190.69;4984482;28;20449;-80
2021/01/27 06:50:29;;;;;;;0.20;0.10;;;;;;;2.29;100.00;100191.56;4996815;28;20832;-80
2021/01/27 06:53:07;;;;;;;0.20;0.10;;;;;;;2.20;100.00;100197.66;5002382;28;20461;-80
2021/01/27 06:55:56;;;;;;;0.20;0.10;;;;;;;2.19;100.00;100201.13;4994962;28;20471;-80
2021/01/27 06:58:31;;;;;;;0.20;0.20;;;;;;;2.15;100.00;100191.50;5001989;28;20888;-80
2021/01/27 07:01:37;;;;;;;0.20;0.10;;;;;;;2.11;100.00;100195.00;4983160;28;20516;-80
2021/01/27 07:04:07;;;;;;;0.20;0.10;;;;;;;2.06;100.00;100192.34;4973496;28;20460;-80
2021/01/27 07:06:51;;;;;;;0.20;0.10;;;;;;;2.08;100.00;100188.00;4992168;28;20488;-80
2021/01/27 07:09:20;;;;;;;0.20;0.10;;;;;;;2.11;100.00;100184.50;5018222;22;20552;-47
2021/01/27 07:12:01;;;;;;;0.20;0.10;;;;;;;2.07;100.00;100183.63;5035958;28;20447;-47
2021/01/27 07:14:33;;;;;;;0.20;0.10;;;;;;;2.07;100.00;100181.00;5046116;28;20917;-47
2021/01/27 07:17:13;;;;;;;0.20;0.10;;;;;;;1.92;100.00;100180.94;5032721;28;20448;-47
2021/01/27 07:20:08;;;;;;;0.20;0.10;;;;;;;1.97;100.00;100186.19;5046187;28;20933;-47
2021/01/27 07:23:06;;;;;;;0.20;0.10;;;;;;;1.85;100.00;100170.41;5036200;28;20489;-47
2021/01/27 07:26:10;;;;;;;0.20;0.10;;;;;;;1.91;100.00;100167.81;5031361;28;20471;-48
2021/01/27 07:28:55;;;;;;;0.20;0.10;;;;;;;1.85;100.00;100155.56;5032458;28;20932;-49
2021/01/27 07:31:25;;;;;;;0.20;0.10;;;;;;;1.94;100.00;100154.75;5041635;28;20448;-47
2021/01/27 07:34:00;;;;;;;0.20;0.10;;;;;;;1.93;100.00;100153.00;5035820;28;20467;-47
2021/01/27 07:36:47;;;;;;;0.20;0.10;;;;;;;1.95;100.00;100151.25;5043103;28;20793;-47
2021/01/27 07:39:31;;;;;;;0.20;0.10;;;;;;;1.90;100.00;100151.19;5045331;28;20569;-47
2021/01/27 07:42:22;;;;;;;0.20;0.10;;;;;;;1.81;100.00;100161.66;5034162;28;20896;-48
2021/01/27 07:44:54;;;;;;;0.20;0.10;;;;;;;1.84;100.00;100166.03;5052970;28;20876;-46
2021/01/27 07:47:23;;;;;;;0.20;0.10;;;;;;;1.90;100.00;100168.69;5045067;28;20444;-47
2021/01/27 07:49:57;;;;;;;0.20;0.10;;;;;;;1.83;100.00;100166.91;5033175;28;20935;-47
2021/01/27 07:52:35;;;;;;;0.20;0.10;;;;;;;2.03;100.00;100160.88;5043901;28;20994;-46
2021/01/27 07:55:05;;;;;;;0.20;0.10;;;;;;;1.97;100.00;100158.25;5047934;28;20458;-47
2021/01/27 07:58:09;;;;;;;0.20;0.10;;;;;;;1.95;100.00;100159.97;5041162;28;20452;-46
2021/01/27 08:01:02;;;;;;;0.20;0.10;;;;;;;2.15;100.00;100146.06;5042781;28;20490;-46
2021/01/27 08:03:38;;;;;;;0.20;0.10;;;;;;;1.91;100.00;100134.59;5029775;28;20888;-46
2021/01/27 08:06:15;;;;;;;0.20;0.10;;;;;;;2.00;100.00;100142.50;5034101;28;20494;-47
2021/01/27 08:08:52;;;;;;;0.20;0.10;;;;;;;2.01;100.00;100156.50;5041787;28;20462;-46
2021/01/27 08:11:27;;;;;;;0.20;0.10;;;;;;;1.94;100.00;100146.88;5035808;28;20442;-47
2021/01/27 08:13:53;;;;;;;0.20;0.10;;;;;;;2.04;100.00;100141.66;5038523;28;20467;-46
2021/01/27 08:16:32;;;;;;;0.30;0.20;;;;;;;1.89;100.00;100136.34;5037262;28;20455;-46
2021/01/27 08:19:11;;;;;;;0.77;0.77;;;;;;;1.94;100.00;100141.63;5036458;28;20481;-46
2021/01/27 08:21:46;;;;;;;0.20;0.10;;;;;;;1.94;100.00;100133.78;5040298;28;20498;-47
2021/01/27 08:24:37;;;;;;;0.20;0.10;;;;;;;1.94;100.00;100129.41;5041328;28;20466;-46
2021/01/27 08:27:10;;;;;;;0.20;0.13;;;;;;;1.96;100.00;100118.91;5037111;28;20451;-46
2021/01/27 08:29:56;;;;;;;0.20;0.10;;;;;;;1.97;100.00;100115.44;5030965;28;20467;-47
2021/01/27 08:32:32;;;;;;;0.20;0.10;;;;;;;1.97;100.00;100107.56;5041502;28;20461;-46
2021/01/27 08:35:22;;;;;;;0.20;0.10;;;;;;;1.85;100.00;100100.53;5038136;28;21038;-46
2021/01/27 08:38:17;;;;;;;0.27;0.20;;;;;;;1.67;100.00;100097.84;5020715;28;20447;-47
2021/01/27 08:40:44;;;;;;;0.20;0.10;;;;;;;1.72;100.00;100098.75;5031173;28;20491;-46
2021/01/27 08:43:15;;;;;;;0.20;0.10;;;;;;;1.87;100.00;100106.66;5043929;28;20485;-46
2021/01/27 08:45:45;;;;;;;0.20;0.10;;;;;;;1.86;100.00;100110.16;5043572;28;20999;-46
2021/01/27 08:48:33;;;;;;;0.20;0.10;;;;;;;1.77;100.00;100112.72;5030291;28;20450;-46
2021/01/27 08:50:59;;;;;;;0.20;0.10;;;;;;;1.76;100.00;100114.47;5040126;28;20452;-48
2021/01/27 08:53:28;;;;;;;0.20;0.10;;;;;;;1.83;100.00;100109.25;5037553;28;20446;-46
2021/01/27 08:56:00;;;;;;;0.20;0.10;;;;;;;1.96;100.00;100114.56;5053950;28;21005;-47
2021/01/27 08:58:39;;;;;;;0.20;0.10;;;;;;;1.96;100.00;100119.78;5034517;28;20440;-46
2021/01/27 09:01:23;;;;;;;0.20;0.10;;;;;;;1.85;100.00;100110.13;5046992;28;20482;-46
2021/01/27 09:03:52;;;;;;;0.20;0.10;;;;;;;1.88;100.00;100115.38;5033969;28;20463;-46
2021/01/27 09:06:37;;;;;;;0.20;0.10;;;;;;;1.80;100.00;100111.88;5047187;28;20451;-46
2021/01/27 09:09:13;;;;;;;0.20;0.10;;;;;;;1.95;100.00;100112.81;5013255;28;627659;-47
2021/01/27 09:11:41;;;;;;;0.20;0.10;;;;;;;1.85;100.00;100111.00;5046480;28;20918;-47
2021/01/27 09:14:12;;;;;;;0.43;0.43;;;;;;;1.79;100.00;100121.50;5037197;28;20901;-47
2021/01/27 09:16:41;;;;;;;0.20;0.10;;;;;;;1.78;100.00;100107.50;5045951;28;20448;-46
2021/01/27 09:19:19;;;;;;;0.20;0.10;;;;;;;1.86;100.00;100090.94;5037146;28;20479;-47
2021/01/27 09:21:59;;;;;;;0.20;0.10;;;;;;;2.03;100.00;100071.75;5043147;28;20495;-47
2021/01/27 09:24:40;;;;;;;0.20;0.10;;;;;;;1.99;100.00;100084.84;5044696;28;20470;-46
2021/01/27 09:27:33;;;;;;;0.20;0.10;;;;;;;1.95;100.00;100102.31;5039112;28;20450;-47
2021/01/27 09:30:04;;;;;;;0.20;0.20;;;;;;;2.01;100.00;100111.94;5045813;28;20455;-47
2021/01/27 09:32:32;;;;;;;0.20;0.10;;;;;;;2.10;100.00;100101.50;5047767;28;20929;-47
2021/01/27 09:35:20;;;;;;;0.20;0.10;;;;;;;1.99;100.00;100080.47;5047683;28;20979;-47
2021/01/27 09:38:12;;;;;;;0.20;0.10;;;;;;;2.04;100.00;100093.59;5045004;28;20475;-46
2021/01/27 09:40:43;;;;;;;0.20;0.10;;;;;;;1.96;100.00;100098.84;5041635;28;20458;-47
2021/01/27 09:43:13;;;;;;;1.80;1.70;;;;;;;2.04;100.00;100102.31;5040346;28;20448;-46
2021/01/27 09:45:43;;;;;;;0.20;0.10;;;;;;;1.97;100.00;100104.94;5042578;28;20475;-45
2021/01/27 09:48:13;;;;;;;0.20;0.10;;;;;;;1.89;100.00;100112.78;5039248;28;20455;-45
2021/01/27 09:50:43;;;;;;;0.20;0.10;;;;;;;2.00;100.00;100105.81;5043509;28;20542;-45
2021/01/27 09:53:22;;;;;;;0.20;0.10;;;;;;;2.07;100.00;100107.59;5037805;28;20459;-49
2021/01/27 09:55:49;;;;;;;0.20;0.10;;;;;;;2.06;100.00;100108.47;5044555;28;20520;-46
2021/01/27 09:58:15;;;;;;;0.20;0.10;;;;;;;2.22;100.00;100119.88;5052945;28;20870;-46
2021/01/27 10:00:42;;;;;;;0.20;0.10;;;;;;;2.21;100.00;100105.00;5043301;28;20448;-45
2021/01/27 10:03:30;;;;;;;0.20;0.10;;;;;;;2.18;100.00;100112.84;5040014;28;20873;-46
2021/01/27 10:05:58;;;;;;;0.20;0.10;;;;;;;2.18;100.00;100110.22;5039145;28;20440;-46
2021/01/27 10:08:35;;;;;;;0.20;0.10;;;;;;;2.16;100.00;100105.84;5040615;28;20450;-52
2021/01/27 10:11:09;;;;;;;0.20;0.10;;;;;;;2.36;100.00;100093.69;5037470;28;20479;-53
2021/01/27 10:13:37;;;;;;;0.20;0.10;;;;;;;2.17;100.00;100095.38;5044232;28;20953;-52
2021/01/27 10:16:10;;;;;;;0.20;0.10;;;;;;;2.16;100.00;100103.25;5036214;28;20479;-52
2021/01/27 10:18:38;;;;;;;0.20;0.10;;;;;;;2.16;100.00;100095.38;5045786;28;20439;-52
2021/01/27 10:21:10;;;;;;;1.37;1.27;;;;;;;2.25;100.00;100093.66;5035133;28;20483;-52
2021/01/27 10:23:41;;;;;;;0.20;0.10;;;;;;;2.22;100.00;100087.53;5046277;28;20962;-52
2021/01/27 10:26:24;;;;;;;0.20;0.10;;;;;;;2.23;100.00;100097.16;5050652;28;20457;-52
2021/01/27 10:29:15;;;;;;;0.20;0.10;;;;;;;2.47;100.00;100105.06;5051373;28;20457;-51
2021/01/27 10:31:53;;;;;;;0.20;0.10;;;;;;;2.56;100.00;100107.69;5033337;28;20978;-52
2021/01/27 10:34:42;;;;;;;0.20;0.10;;;;;;;2.46;100.00;100115.53;5039746;28;20462;-51
2021/01/27 10:37:44;;;;;;;0.20;0.20;;;;;;;2.42;100.00;100106.78;5036125;28;20447;-53
2021/01/27 10:40:26;;;;;;;0.63;0.63;;;;;;;2.34;100.00;100112.03;5005267;28;20460;-53
2021/01/27 10:43:01;;;;;;;0.20;0.10;;;;;;;2.32;100.00;100102.38;5029269;28;20501;-53
2021/01/27 10:45:27;;;;;;;0.20;0.10;;;;;;;2.29;100.00;100105.00;5046368;28;20851;-53
2021/01/27 10:48:12;;;;;;;0.20;0.10;;;;;;;2.41;100.00;100102.41;5033556;28;20865;-53
2021/01/27 10:50:50;;;;;;;0.20;0.10;;;;;;;2.48;100.00;100104.19;5041820;28;20454;-52
2021/01/27 10:53:34;;;;;;;0.20;0.10;;;;;;;2.46;100.00;100108.53;5035042;28;20448;-53
2021/01/27 10:56:00;;;;;;;0.20;0.10;;;;;;;2.56;100.00;100091.94;5045667;28;20443;-47
2021/01/27 10:58:26;;;;;;;0.20;0.10;;;;;;;2.57;100.00;100091.06;5047497;28;20822;-47
2021/01/27 11:00:52;;;;;;;0.30;0.23;;;;;;;2.64;100.00;100097.19;5035199;28;20988;-47
2021/01/27 11:03:18;;;;;;;0.20;0.20;;;;;;;2.62;100.00;100106.81;5034496;28;20452;-48
2021/01/27 11:05:46;;;;;;;0.20;0.10;;;;;;;2.63;100.00;100104.19;5047482;28;20446;-47
2021/01/27 11:08:26;;;;;;;0.20;0.10;;;;;;;2.67;100.00;100102.44;5034991;28;20478;-47
2021/01/27 11:10:53;;;;;;;0.20;0.10;;;;;;;2.68;100.00;100077.94;5048239;28;20496;-47
2021/01/27 11:13:20;;;;;;;0.20;0.10;;;;;;;2.59;100.00;100062.19;5032945;28;20473;-46
2021/01/27 11:15:46;;;;;;;0.20;0.10;;;;;;;2.56;100.00;100049.97;5047947;28;20505;-47
2021/01/27 11:18:13;;;;;;;0.20;0.10;;;;;;;2.68;100.00;100047.34;5034596;28;20860;-47
2021/01/27 11:20:39;;;;;;;0.20;0.10;;;;;;;2.76;100.00;100049.97;5047403;28;20454;-48
2021/01/27 11:23:05;;;;;;;2.77;2.57;;;;;;;2.87;100.00;100047.31;5034541;28;20454;-47
2021/01/27 11:25:32;;;;;;;0.20;0.10;;;;;;;2.93;100.00;100034.19;5047355;28;20520;-47
2021/01/27 11:27:58;;;;;;;0.20;0.13;;;;;;;3.10;100.00;100049.91;5051783;28;20442;-48
2021/01/27 11:30:28;;;;;;;0.20;0.10;;;;;;;3.15;100.00;100056.00;5037514;28;20468;-48
2021/01/27 11:32:54;;;;;;;0.20;0.10;;;;;;;3.23;100.00;100049.84;5042178;28;20443;-46
2021/01/27 11:35:23;;;;;;;0.20;0.10;;;;;;;3.19;100.00;100040.25;5035468;28;20471;-46
2021/01/27 11:37:50;;;;;;;0.20;0.10;;;;;;;3.31;100.00;100036.72;5042411;28;20455;-46
2021/01/27 11:40:21;;;;;;;0.20;0.10;;;;;;;3.22;100.00;100026.22;5036714;28;20456;-47
2021/01/27 11:42:47;;;;;;;0.20;0.10;;;;;;;3.13;100.00;100021.88;5043700;28;20513;-46
2021/01/27 11:45:14;;;;;;;0.20;0.10;;;;;;;3.13;100.00;100021.00;5035091;28;20472;-46
2021/01/27 11:47:40;;;;;;;0.20;0.10;;;;;;;3.07;100.00;100005.28;5043222;28;20455;-46
2021/01/27 11:50:08;;;;;;;0.20;0.10;;;;;;;3.02;100.00;100001.81;5035185;28;20940;-46
2021/01/27 11:52:34;;;;;;;0.20;0.10;;;;;;;3.07;100.00;99987.78;5043207;28;20461;-46
2021/01/27 11:55:00;;;;;;;2.50;2.40;;;;;;;3.10;100.00;99997.38;5043808;28;20469;-46
2021/01/27 11:57:26;;;;;;;11.73;2.63;;;;;;;3.04;100.00;99995.66;5057268;28;20453;-46
2021/01/27 11:59:53;;;;;;;0.20;0.10;;;;;;;3.04;100.00;99994.78;5034108;28;20447;-46
2021/01/27 12:02:19;;;;;;;0.20;0.13;;;;;;;3.01;100.00;99993.03;5034378;28;20495;-47